sensor_id;sensor_type;location;lat;lon;timestamp;pressure;altitude;pressure_sealevel;temperature;humidity
42125;BME280;27787;44.594;11.046;2023-01-15T00:02:07;101491.03;;;5.55;99.73
42125;BME280;27787;44.594;11.046;2023-01-15T00:04:51;101480.38;;;5.51;100.00
42125;BME280;27787;44.594;11.046;2023-01-15T00:07:35;101484.84;;;5.53;100.00
42125;BME280;27787;44.594;11.046;2023-01-15T00:10:19;101492.25;;;5.63;100.00
42125;BME280;27787;44.594;11.046;2023-01-15T00:13:03;101491.03;;;5.78;100.00
42125;BME280;27787;44.594;11.046;2023-01-15T00:15:48;101484.44;;;5.87;99.57
42125;BME280;27787;44.594;11.046;2023-01-15T00:18:32;101482.41;;;6.03;99.14
42125;BME280;27787;44.594;11.046;2023-01-15T00:21:17;101478.41;;;6.12;99.00
42125;BME280;27787;44.594;11.046;2023-01-15T00:24:01;101485.81;;;6.24;98.62
42125;BME280;27787;44.594;11.046;2023-01-15T00:27:04;101469.69;;;6.37;98.07
42125;BME280;27787;44.594;11.046;2023-01-15T00:30:10;101456.84;;;6.45;97.47
42125;BME280;27787;44.594;11.046;2023-01-15T00:32:56;101461.31;;;6.47;97.13
42125;BME280;27787;44.594;11.046;2023-01-15T00:35:41;101463.81;;;6.44;96.85
42125;BME280;27787;44.594;11.046;2023-01-15T00:38:26;101454.97;;;6.41;96.88
42125;BME280;27787;44.594;11.046;2023-01-15T00:41:09;101455.75;;;6.38;96.77
42125;BME280;27787;44.594;11.046;2023-01-15T00:43:54;101450.56;;;6.40;97.01
42125;BME280;27787;44.594;11.046;2023-01-15T00:46:38;101448.88;;;6.42;97.10
42125;BME280;27787;44.594;11.046;2023-01-15T00:49:23;101443.47;;;6.37;96.78
42125;BME280;27787;44.594;11.046;2023-01-15T00:52:07;101442.56;;;6.37;97.16
42125;BME280;27787;44.594;11.046;2023-01-15T00:54:51;101437.31;;;6.37;96.74
42125;BME280;27787;44.594;11.046;2023-01-15T00:57:37;101429.41;;;6.35;97.10
42125;BME280;27787;44.594;11.046;2023-01-15T01:00:21;101425.75;;;6.30;97.44
42125;BME280;27787;44.594;11.046;2023-01-15T01:03:06;101431.00;;;6.30;97.78
42125;BME280;27787;44.594;11.046;2023-01-15T01:05:50;101429.22;;;6.29;98.02
42125;BME280;27787;44.594;11.046;2023-01-15T01:08:34;101422.38;;;6.34;98.43
42125;BME280;27787;44.594;11.046;2023-01-15T01:11:20;101426.97;;;6.40;97.91
42125;BME280;27787;44.594;11.046;2023-01-15T01:14:06;101413.00;;;6.41;97.72
42125;BME280;27787;44.594;11.046;2023-01-15T01:16:52;101408.56;;;6.38;97.80
42125;BME280;27787;44.594;11.046;2023-01-15T01:19:36;101422.63;;;6.40;98.03
42125;BME280;27787;44.594;11.046;2023-01-15T01:22:21;101417.38;;;6.40;97.76
42125;BME280;27787;44.594;11.046;2023-01-15T01:25:06;101403.09;;;6.32;97.19
42125;BME280;27787;44.594;11.046;2023-01-15T01:27:50;101410.81;;;6.28;97.92
42125;BME280;27787;44.594;11.046;2023-01-15T01:30:36;101401.81;;;6.21;98.70
42125;BME280;27787;44.594;11.046;2023-01-15T01:33:21;101407.00;;;6.19;98.93
42125;BME280;27787;44.594;11.046;2023-01-15T01:36:05;101406.81;;;6.13;98.34
42125;BME280;27787;44.594;11.046;2023-01-15T01:38:49;101406.47;;;6.04;97.40
42125;BME280;27787;44.594;11.046;2023-01-15T01:41:34;101399.34;;;6.00;97.56
42125;BME280;27787;44.594;11.046;2023-01-15T01:47:17;101393.31;;;6.03;98.83
42125;BME280;27787;44.594;11.046;2023-01-15T01:50:09;101386.50;;;6.08;98.99
42125;BME280;27787;44.594;11.046;2023-01-15T01:53:02;101389.31;;;6.12;98.37
42125;BME280;27787;44.594;11.046;2023-01-15T01:55:49;101403.94;;;6.07;97.79
42125;BME280;27787;44.594;11.046;2023-01-15T01:58:34;101389.81;;;6.02;96.29
42125;BME280;27787;44.594;11.046;2023-01-15T02:01:20;101389.38;;;5.90;94.68
42125;BME280;27787;44.594;11.046;2023-01-15T02:04:07;101391.41;;;5.75;94.64
42125;BME280;27787;44.594;11.046;2023-01-15T02:06:52;101395.50;;;5.68;96.18
42125;BME280;27787;44.594;11.046;2023-01-15T02:09:43;101395.66;;;5.73;96.00
42125;BME280;27787;44.594;11.046;2023-01-15T02:12:32;101402.88;;;5.78;95.19
42125;BME280;27787;44.594;11.046;2023-01-15T02:15:23;101396.91;;;5.82;95.08
42125;BME280;27787;44.594;11.046;2023-01-15T02:18:22;101389.03;;;5.82;93.70
42125;BME280;27787;44.594;11.046;2023-01-15T02:21:21;101377.50;;;5.77;93.68
42125;BME280;27787;44.594;11.046;2023-01-15T02:27:17;101368.75;;;5.77;95.43
42125;BME280;27787;44.594;11.046;2023-01-15T02:30:08;101361.78;;;5.77;95.81
42125;BME280;27787;44.594;11.046;2023-01-15T02:33:22;101361.00;;;5.80;96.81
42125;BME280;27787;44.594;11.046;2023-01-15T02:36:14;101369.09;;;5.86;96.93
42125;BME280;27787;44.594;11.046;2023-01-15T02:39:02;101357.09;;;5.91;95.53
42125;BME280;27787;44.594;11.046;2023-01-15T02:41:50;101358.06;;;5.95;94.13
42125;BME280;27787;44.594;11.046;2023-01-15T02:44:41;101349.13;;;5.89;93.74
42125;BME280;27787;44.594;11.046;2023-01-15T02:47:33;101348.06;;;5.84;94.48
42125;BME280;27787;44.594;11.046;2023-01-15T02:50:25;101348.06;;;5.84;94.63
42125;BME280;27787;44.594;11.046;2023-01-15T02:53:16;101339.34;;;5.85;94.07
42125;BME280;27787;44.594;11.046;2023-01-15T02:56:08;101332.19;;;5.80;94.69
42125;BME280;27787;44.594;11.046;2023-01-15T02:59:05;101334.03;;;5.82;95.60
42125;BME280;27787;44.594;11.046;2023-01-15T03:02:04;101321.94;;;5.86;95.22
42125;BME280;27787;44.594;11.046;2023-01-15T03:05:01;101318.19;;;5.79;95.22
42125;BME280;27787;44.594;11.046;2023-01-15T03:07:55;101312.91;;;5.78;95.63
42125;BME280;27787;44.594;11.046;2023-01-15T03:10:47;101304.22;;;5.79;95.67
42125;BME280;27787;44.594;11.046;2023-01-15T03:16:28;101310.06;;;5.72;95.53
42125;BME280;27787;44.594;11.046;2023-01-15T03:19:38;101305.78;;;5.74;95.65
42125;BME280;27787;44.594;11.046;2023-01-15T03:22:36;101296.31;;;5.77;95.39
42125;BME280;27787;44.594;11.046;2023-01-15T03:25:26;101297.03;;;5.73;95.57
42125;BME280;27787;44.594;11.046;2023-01-15T03:28:18;101292.06;;;5.81;95.81
42125;BME280;27787;44.594;11.046;2023-01-15T03:31:05;101288.13;;;5.92;95.75
42125;BME280;27787;44.594;11.046;2023-01-15T03:33:50;101283.81;;;5.94;95.88
42125;BME280;27787;44.594;11.046;2023-01-15T03:36:37;101290.22;;;6.02;96.47
42125;BME280;27787;44.594;11.046;2023-01-15T03:39:22;101293.03;;;6.08;96.04
42125;BME280;27787;44.594;11.046;2023-01-15T03:45:31;101284.56;;;6.15;95.53
42125;BME280;27787;44.594;11.046;2023-01-15T03:48:38;101280.41;;;6.22;95.42
42125;BME280;27787;44.594;11.046;2023-01-15T03:51:38;101279.38;;;6.17;94.64
42125;BME280;27787;44.594;11.046;2023-01-15T03:55:18;101266.81;;;6.08;95.34
42125;BME280;27787;44.594;11.046;2023-01-15T04:00:59;101274.31;;;5.98;96.25
42125;BME280;27787;44.594;11.046;2023-01-15T04:03:46;101277.13;;;6.02;96.16
42125;BME280;27787;44.594;11.046;2023-01-15T04:06:35;101281.56;;;6.05;96.15
42125;BME280;27787;44.594;11.046;2023-01-15T04:09:22;101281.84;;;6.12;96.03
42125;BME280;27787;44.594;11.046;2023-01-15T04:12:10;101270.38;;;6.10;95.66
42125;BME280;27787;44.594;11.046;2023-01-15T04:14:58;101274.88;;;6.13;95.64
42125;BME280;27787;44.594;11.046;2023-01-15T04:17:42;101272.38;;;6.17;95.33
42125;BME280;27787;44.594;11.046;2023-01-15T04:20:26;101270.69;;;6.19;95.17
42125;BME280;27787;44.594;11.046;2023-01-15T04:23:11;101261.94;;;6.19;94.55
42125;BME280;27787;44.594;11.046;2023-01-15T04:25:55;101257.56;;;6.18;95.01
42125;BME280;27787;44.594;11.046;2023-01-15T04:28:40;101253.28;;;6.21;94.79
42125;BME280;27787;44.594;11.046;2023-01-15T04:31:24;101242.81;;;6.21;94.66
42125;BME280;27787;44.594;11.046;2023-01-15T04:34:10;101239.28;;;6.21;95.29
42125;BME280;27787;44.594;11.046;2023-01-15T04:36:55;101236.66;;;6.21;95.31
42125;BME280;27787;44.594;11.046;2023-01-15T04:39:39;101233.25;;;6.24;95.00
42125;BME280;27787;44.594;11.046;2023-01-15T04:42:23;101223.66;;;6.24;95.12
42125;BME280;27787;44.594;11.046;2023-01-15T04:45:26;101235.16;;;6.28;94.50
42125;BME280;27787;44.594;11.046;2023-01-15T04:48:10;101225.47;;;6.25;94.23
42125;BME280;27787;44.594;11.046;2023-01-15T04:50:55;101221.00;;;6.22;95.21
42125;BME280;27787;44.594;11.046;2023-01-15T04:53:40;101203.41;;;6.18;95.38
42125;BME280;27787;44.594;11.046;2023-01-15T04:56:24;101195.22;;;6.09;95.75
42125;BME280;27787;44.594;11.046;2023-01-15T04:59:09;101202.38;;;6.13;96.87
42125;BME280;27787;44.594;11.046;2023-01-15T05:01:53;101206.84;;;6.17;96.31
42125;BME280;27787;44.594;11.046;2023-01-15T05:04:38;101196.41;;;6.19;95.66
42125;BME280;27787;44.594;11.046;2023-01-15T05:07:22;101195.66;;;6.23;95.92
42125;BME280;27787;44.594;11.046;2023-01-15T05:10:06;101194.78;;;6.22;95.64
42125;BME280;27787;44.594;11.046;2023-01-15T05:12:50;101189.50;;;6.21;95.74
42125;BME280;27787;44.594;11.046;2023-01-15T05:15:35;101184.16;;;6.18;95.81
42125;BME280;27787;44.594;11.046;2023-01-15T05:18:21;101186.66;;;6.13;96.55
42125;BME280;27787;44.594;11.046;2023-01-15T05:21:06;101182.13;;;6.09;97.15
42125;BME280;27787;44.594;11.046;2023-01-15T05:23:56;101188.25;;;6.10;97.13
42125;BME280;27787;44.594;11.046;2023-01-15T05:26:41;101183.84;;;6.09;97.05
42125;BME280;27787;44.594;11.046;2023-01-15T05:29:25;101182.13;;;6.09;96.99
42125;BME280;27787;44.594;11.046;2023-01-15T05:32:09;101177.69;;;6.07;97.30
42125;BME280;27787;44.594;11.046;2023-01-15T05:34:53;101175.00;;;6.05;97.34
42125;BME280;27787;44.594;11.046;2023-01-15T05:37:38;101182.13;;;6.09;97.55
42125;BME280;27787;44.594;11.046;2023-01-15T05:40:22;101178.81;;;6.15;97.30
42125;BME280;27787;44.594;11.046;2023-01-15T05:43:06;101165.75;;;6.16;96.75
42125;BME280;27787;44.594;11.046;2023-01-15T05:45:50;101162.09;;;6.11;96.72
42125;BME280;27787;44.594;11.046;2023-01-15T05:48:34;101162.16;;;6.13;96.98
42125;BME280;27787;44.594;11.046;2023-01-15T05:51:19;101169.31;;;6.18;96.78
42125;BME280;27787;44.594;11.046;2023-01-15T05:54:04;101151.06;;;6.21;96.16
42125;BME280;27787;44.594;11.046;2023-01-15T05:56:49;101166.06;;;6.26;95.83
42125;BME280;27787;44.594;11.046;2023-01-15T05:59:33;101157.34;;;6.27;95.25
42125;BME280;27787;44.594;11.046;2023-01-15T06:02:18;101166.88;;;6.25;95.50
42125;BME280;27787;44.594;11.046;2023-01-15T06:05:02;101164.34;;;6.26;95.35
42125;BME280;27787;44.594;11.046;2023-01-15T06:07:48;101170.34;;;6.24;95.63
42125;BME280;27787;44.594;11.046;2023-01-15T06:10:35;101175.72;;;6.27;95.64
42125;BME280;27787;44.594;11.046;2023-01-15T06:13:19;101179.22;;;6.27;95.66
42125;BME280;27787;44.594;11.046;2023-01-15T06:16:05;101174.75;;;6.25;95.74
42125;BME280;27787;44.594;11.046;2023-01-15T06:18:50;101171.31;;;6.26;96.20
42125;BME280;27787;44.594;11.046;2023-01-15T06:21:34;101167.03;;;6.29;96.66
42125;BME280;27787;44.594;11.046;2023-01-15T06:24:19;101171.56;;;6.35;96.01
42125;BME280;27787;44.594;11.046;2023-01-15T06:27:04;101177.81;;;6.38;96.02
42125;BME280;27787;44.594;11.046;2023-01-15T06:29:48;101178.78;;;6.42;95.76
42125;BME280;27787;44.594;11.046;2023-01-15T06:32:33;101173.50;;;6.40;95.98
42125;BME280;27787;44.594;11.046;2023-01-15T06:35:16;101176.19;;;6.42;95.98
42125;BME280;27787;44.594;11.046;2023-01-15T06:38:01;101167.34;;;6.38;96.34
42125;BME280;27787;44.594;11.046;2023-01-15T06:40:48;101147.34;;;6.42;96.49
42125;BME280;27787;44.594;11.046;2023-01-15T06:43:32;101134.19;;;6.40;96.93
42125;BME280;27787;44.594;11.046;2023-01-15T06:46:41;101131.69;;;6.45;97.26
42125;BME280;27787;44.594;11.046;2023-01-15T06:49:45;101141.56;;;6.54;97.00
42125;BME280;27787;44.594;11.046;2023-01-15T06:52:30;101145.09;;;6.54;96.61
42125;BME280;27787;44.594;11.046;2023-01-15T06:55:14;101132.81;;;6.53;96.69
42125;BME280;27787;44.594;11.046;2023-01-15T06:58:04;101122.09;;;6.45;96.72
42125;BME280;27787;44.594;11.046;2023-01-15T07:00:48;101114.94;;;6.40;97.17
42125;BME280;27787;44.594;11.046;2023-01-15T07:03:37;101109.56;;;6.37;97.69
42125;BME280;27787;44.594;11.046;2023-01-15T07:06:22;101102.44;;;6.31;98.10
42125;BME280;27787;44.594;11.046;2023-01-15T07:09:06;101094.53;;;6.30;98.45
42125;BME280;27787;44.594;11.046;2023-01-15T07:11:51;101116.44;;;6.32;99.07
42125;BME280;27787;44.594;11.046;2023-01-15T07:14:35;101121.84;;;6.38;98.95
42125;BME280;27787;44.594;11.046;2023-01-15T07:17:20;101114.94;;;6.40;98.80
42125;BME280;27787;44.594;11.046;2023-01-15T07:20:04;101116.88;;;6.47;98.66
42125;BME280;27787;44.594;11.046;2023-01-15T07:22:50;101125.03;;;6.56;98.54
42125;BME280;27787;44.594;11.046;2023-01-15T07:25:34;101130.47;;;6.64;97.93
42125;BME280;27787;44.594;11.046;2023-01-15T07:28:19;101113.13;;;6.67;97.28
42125;BME280;27787;44.594;11.046;2023-01-15T07:31:04;101099.91;;;6.64;97.18
42125;BME280;27787;44.594;11.046;2023-01-15T07:33:48;101096.38;;;6.64;97.36
42125;BME280;27787;44.594;11.046;2023-01-15T07:36:32;101108.72;;;6.66;97.67
42125;BME280;27787;44.594;11.046;2023-01-15T07:42:21;101118.44;;;6.70;96.81
42125;BME280;27787;44.594;11.046;2023-01-15T07:45:40;101112.19;;;6.65;97.05
42125;BME280;27787;44.594;11.046;2023-01-15T07:48:44;101121.63;;;6.60;98.07
42125;BME280;27787;44.594;11.046;2023-01-15T07:51:47;101113.94;;;6.65;98.41
42125;BME280;27787;44.594;11.046;2023-01-15T07:54:30;101101.81;;;6.70;97.98
42125;BME280;27787;44.594;11.046;2023-01-15T07:57:20;101106.38;;;6.77;97.52
42125;BME280;27787;44.594;11.046;2023-01-15T08:00:08;101094.91;;;6.73;97.12
42125;BME280;27787;44.594;11.046;2023-01-15T08:02:56;101106.19;;;6.69;97.52
42125;BME280;27787;44.594;11.046;2023-01-15T08:06:01;101116.78;;;6.74;97.76
42125;BME280;27787;44.594;11.046;2023-01-15T08:08:45;101104.66;;;6.77;97.63
42125;BME280;27787;44.594;11.046;2023-01-15T08:11:32;101081.09;;;6.79;98.25
42125;BME280;27787;44.594;11.046;2023-01-15T08:14:35;101092.72;;;6.89;98.65
42125;BME280;27787;44.594;11.046;2023-01-15T08:17:40;101093.94;;;7.01;98.16
42125;BME280;27787;44.594;11.046;2023-01-15T08:20:26;101079.13;;;7.03;97.25
42125;BME280;27787;44.594;11.046;2023-01-15T08:23:13;101081.75;;;7.03;96.75
42125;BME280;27787;44.594;11.046;2023-01-15T08:26:00;101082.53;;;7.01;96.86
42125;BME280;27787;44.594;11.046;2023-01-15T08:28:45;101085.22;;;7.02;97.06
42125;BME280;27787;44.594;11.046;2023-01-15T08:31:29;101074.63;;;6.99;97.13
42125;BME280;27787;44.594;11.046;2023-01-15T08:34:13;101078.19;;;7.01;97.53
42125;BME280;27787;44.594;11.046;2023-01-15T08:36:57;101076.44;;;7.02;97.42
42125;BME280;27787;44.594;11.046;2023-01-15T08:39:43;101072.97;;;7.03;97.37
42125;BME280;27787;44.594;11.046;2023-01-15T08:42:27;101072.19;;;7.05;97.45
42125;BME280;27787;44.594;11.046;2023-01-15T08:45:11;101073.97;;;7.06;97.68
42125;BME280;27787;44.594;11.046;2023-01-15T08:47:56;101068.69;;;7.05;97.89
42125;BME280;27787;44.594;11.046;2023-01-15T08:50:42;101070.41;;;7.04;97.99
42125;BME280;27787;44.594;11.046;2023-01-15T08:53:26;101068.78;;;7.09;98.02
42125;BME280;27787;44.594;11.046;2023-01-15T08:56:17;101053.03;;;7.09;98.00
42125;BME280;27787;44.594;11.046;2023-01-15T08:59:05;101064.59;;;7.16;98.42
42125;BME280;27787;44.594;11.046;2023-01-15T09:01:51;101068.19;;;7.20;98.47
42125;BME280;27787;44.594;11.046;2023-01-15T09:04:35;101059.47;;;7.21;98.55
42125;BME280;27787;44.594;11.046;2023-01-15T09:07:19;101069.06;;;7.20;98.70
42125;BME280;27787;44.594;11.046;2023-01-15T09:10:04;101057.75;;;7.23;98.72
42125;BME280;27787;44.594;11.046;2023-01-15T09:12:48;101063.91;;;7.23;98.78
42125;BME280;27787;44.594;11.046;2023-01-15T09:15:32;101063.97;;;7.26;98.85
42125;BME280;27787;44.594;11.046;2023-01-15T09:18:17;101047.28;;;7.24;99.45
42125;BME280;27787;44.594;11.046;2023-01-15T09:21:02;101055.97;;;7.22;99.14
42125;BME280;27787;44.594;11.046;2023-01-15T09:23:46;101056.88;;;7.22;99.39
42125;BME280;27787;44.594;11.046;2023-01-15T09:26:34;101046.41;;;7.24;98.92
42125;BME280;27787;44.594;11.046;2023-01-15T09:29:19;101041.97;;;7.21;98.33
42125;BME280;27787;44.594;11.046;2023-01-15T09:32:03;101051.56;;;7.19;97.84
42125;BME280;27787;44.594;11.046;2023-01-15T09:34:48;101044.53;;;7.18;98.63
42125;BME280;27787;44.594;11.046;2023-01-15T09:37:32;101048.13;;;7.23;98.29
42125;BME280;27787;44.594;11.046;2023-01-15T09:46:52;101021.56;;;7.11;99.02
42125;BME280;27787;44.594;11.046;2023-01-15T09:55:37;101022.50;;;7.13;99.30
42125;BME280;27787;44.594;11.046;2023-01-15T09:58:36;101017.28;;;7.15;99.58
42125;BME280;27787;44.594;11.046;2023-01-15T10:01:28;101014.03;;;7.25;99.55
42125;BME280;27787;44.594;11.046;2023-01-15T10:10:13;100973.59;;;7.54;97.94
42125;BME280;27787;44.594;11.046;2023-01-15T10:13:21;100973.88;;;7.66;97.57
42125;BME280;27787;44.594;11.046;2023-01-15T10:16:10;100964.47;;;7.76;96.45
42125;BME280;27787;44.594;11.046;2023-01-15T10:18:56;100959.44;;;7.87;96.35
42125;BME280;27787;44.594;11.046;2023-01-15T10:21:59;100956.06;;;7.92;95.45
42125;BME280;27787;44.594;11.046;2023-01-15T10:24:54;100960.72;;;8.06;95.39
42125;BME280;27787;44.594;11.046;2023-01-15T10:27:44;100955.63;;;8.13;95.01
42125;BME280;27787;44.594;11.046;2023-01-15T10:30:40;100946.16;;;8.21;94.85
42125;BME280;27787;44.594;11.046;2023-01-15T10:33:44;100933.88;;;8.20;93.70
42125;BME280;27787;44.594;11.046;2023-01-15T10:36:51;100935.69;;;8.24;94.14
42125;BME280;27787;44.594;11.046;2023-01-15T10:39:58;100939.28;;;8.29;94.02
42125;BME280;27787;44.594;11.046;2023-01-15T10:43:14;100939.31;;;8.31;92.75
42125;BME280;27787;44.594;11.046;2023-01-15T10:46:10;100914.75;;;8.31;92.91
42125;BME280;27787;44.594;11.046;2023-01-15T10:49:16;100910.41;;;8.33;92.28
42125;BME280;27787;44.594;11.046;2023-01-15T10:55:16;100919.78;;;8.18;93.01
42125;BME280;27787;44.594;11.046;2023-01-15T10:58:13;100907.25;;;8.05;94.48
42125;BME280;27787;44.594;11.046;2023-01-15T11:01:04;100894.06;;;8.04;94.95
42125;BME280;27787;44.594;11.046;2023-01-15T11:03:49;100886.16;;;8.02;95.01
42125;BME280;27787;44.594;11.046;2023-01-15T11:06:34;100890.72;;;8.11;96.03
42125;BME280;27787;44.594;11.046;2023-01-15T11:09:24;100873.34;;;8.19;95.31
42125;BME280;27787;44.594;11.046;2023-01-15T11:12:22;100864.59;;;8.20;94.72
42125;BME280;27787;44.594;11.046;2023-01-15T11:15:23;100871.47;;;8.12;95.67
42125;BME280;27787;44.594;11.046;2023-01-15T11:18:29;100866.09;;;8.07;96.07
42125;BME280;27787;44.594;11.046;2023-01-15T11:21:39;100852.84;;;8.01;96.37
42125;BME280;27787;44.594;11.046;2023-01-15T11:24:25;100852.81;;;7.98;96.79
42125;BME280;27787;44.594;11.046;2023-01-15T11:27:14;100851.38;;;8.17;96.60
42125;BME280;27787;44.594;11.046;2023-01-15T11:30:00;100846.72;;;8.02;97.16
42125;BME280;27787;44.594;11.046;2023-01-15T11:32:54;100843.97;;;7.94;98.44
42125;BME280;27787;44.594;11.046;2023-01-15T11:35:49;100838.59;;;7.90;98.36
42125;BME280;27787;44.594;11.046;2023-01-15T11:38:44;100838.72;;;7.94;98.47
42125;BME280;27787;44.594;11.046;2023-01-15T11:41:31;100830.06;;;8.00;96.92
42125;BME280;27787;44.594;11.046;2023-01-15T11:44:34;100836.25;;;8.04;96.37
42125;BME280;27787;44.594;11.046;2023-01-15T11:47:49;100824.63;;;7.92;96.44
42125;BME280;27787;44.594;11.046;2023-01-15T11:50:57;100825.41;;;7.87;96.96
42125;BME280;27787;44.594;11.046;2023-01-15T11:53:46;100827.84;;;7.78;97.49
42125;BME280;27787;44.594;11.046;2023-01-15T11:56:33;100818.91;;;7.68;98.38
42125;BME280;27787;44.594;11.046;2023-01-15T11:59:18;100804.88;;;7.67;98.85
42125;BME280;27787;44.594;11.046;2023-01-15T12:05:16;100795.25;;;7.68;98.62
42125;BME280;27787;44.594;11.046;2023-01-15T12:08:14;100797.00;;;7.67;98.37
42125;BME280;27787;44.594;11.046;2023-01-15T12:17:18;100784.81;;;7.69;98.68
42125;BME280;27787;44.594;11.046;2023-01-15T12:20:53;100769.28;;;7.83;97.84
42125;BME280;27787;44.594;11.046;2023-01-15T12:30:01;100755.41;;;7.92;97.53
42125;BME280;27787;44.594;11.046;2023-01-15T12:32:54;100751.16;;;7.97;97.30
42125;BME280;27787;44.594;11.046;2023-01-15T12:35:44;100736.25;;;7.97;96.63
42125;BME280;27787;44.594;11.046;2023-01-15T12:41:39;100726.50;;;7.92;97.02
42125;BME280;27787;44.594;11.046;2023-01-15T12:44:57;100734.41;;;7.93;97.90
42125;BME280;27787;44.594;11.046;2023-01-15T12:50:50;100714.38;;;7.98;97.53
42125;BME280;27787;44.594;11.046;2023-01-15T12:53:40;100719.69;;;8.02;96.99
42125;BME280;27787;44.594;11.046;2023-01-15T12:56:32;100715.19;;;7.94;97.52
42125;BME280;27787;44.594;11.046;2023-01-15T12:59:23;100707.31;;;7.94;98.13
42125;BME280;27787;44.594;11.046;2023-01-15T13:05:49;100694.25;;;8.01;98.70
42125;BME280;27787;44.594;11.046;2023-01-15T13:08:51;100697.78;;;8.03;99.02
42125;BME280;27787;44.594;11.046;2023-01-15T13:11:37;100690.81;;;8.06;98.34
42125;BME280;27787;44.594;11.046;2023-01-15T13:14:22;100709.16;;;8.02;98.58
42125;BME280;27787;44.594;11.046;2023-01-15T13:17:17;100707.31;;;7.96;98.84
42125;BME280;27787;44.594;11.046;2023-01-15T13:20:32;100702.00;;;7.93;99.64
42125;BME280;27787;44.594;11.046;2023-01-15T13:32:34;100692.66;;;8.10;100.00
42125;BME280;27787;44.594;11.046;2023-01-15T13:35:31;100676.91;;;8.12;99.71
42125;BME280;27787;44.594;11.046;2023-01-15T13:38:20;100670.78;;;8.13;99.81
42125;BME280;27787;44.594;11.046;2023-01-15T13:41:06;100671.59;;;8.09;99.77
42125;BME280;27787;44.594;11.046;2023-01-15T13:43:51;100678.53;;;8.04;100.00
42125;BME280;27787;44.594;11.046;2023-01-15T13:49:49;100665.31;;;7.99;100.00
42125;BME280;27787;44.594;11.046;2023-01-15T13:52:35;100663.59;;;8.01;100.00
42125;BME280;27787;44.594;11.046;2023-01-15T13:55:29;100655.72;;;8.03;100.00
42125;BME280;27787;44.594;11.046;2023-01-15T13:58:31;100660.13;;;8.04;100.00
42125;BME280;27787;44.594;11.046;2023-01-15T14:06:53;100658.56;;;8.16;100.00
42125;BME280;27787;44.594;11.046;2023-01-15T14:09:37;100650.84;;;8.27;100.00
42125;BME280;27787;44.594;11.046;2023-01-15T14:12:31;100648.28;;;8.32;100.00
42125;BME280;27787;44.594;11.046;2023-01-15T14:34:21;100617.19;;;8.62;98.51
42125;BME280;27787;44.594;11.046;2023-01-15T14:37:31;100613.69;;;8.65;98.53
42125;BME280;27787;44.594;11.046;2023-01-15T14:40:59;100615.44;;;8.64;98.10
42125;BME280;27787;44.594;11.046;2023-01-15T14:43:48;100607.56;;;8.66;98.10
42125;BME280;27787;44.594;11.046;2023-01-15T14:46:34;100605.84;;;8.68;98.29
42125;BME280;27787;44.594;11.046;2023-01-15T14:49:30;100583.94;;;8.70;98.29
42125;BME280;27787;44.594;11.046;2023-01-15T14:52:21;100587.44;;;8.71;98.39
42125;BME280;27787;44.594;11.046;2023-01-15T14:57:59;100599.72;;;8.69;97.62
42125;BME280;27787;44.594;11.046;2023-01-15T15:00:51;100603.19;;;8.68;98.03
42125;BME280;27787;44.594;11.046;2023-01-15T15:03:38;100599.69;;;8.67;97.80
42125;BME280;27787;44.594;11.046;2023-01-15T15:06:27;100584.78;;;8.68;97.82
42125;BME280;27787;44.594;11.046;2023-01-15T15:09:13;100598.81;;;8.67;97.60
42125;BME280;27787;44.594;11.046;2023-01-15T15:26:47;100554.91;;;8.63;98.51
42125;BME280;27787;44.594;11.046;2023-01-15T15:29:35;100552.22;;;8.58;98.63
42125;BME280;27787;44.594;11.046;2023-01-15T15:32:22;100564.53;;;8.61;98.89
42125;BME280;27787;44.594;11.046;2023-01-15T15:35:26;100561.03;;;8.60;99.54
42125;BME280;27787;44.594;11.046;2023-01-15T15:38:22;100566.22;;;8.57;99.52
42125;BME280;27787;44.594;11.046;2023-01-15T15:41:08;100574.97;;;8.54;99.35
42125;BME280;27787;44.594;11.046;2023-01-15T15:43:55;100573.19;;;8.50;99.58
42125;BME280;27787;44.594;11.046;2023-01-15T15:47:16;100564.38;;;8.48;100.00
42125;BME280;27787;44.594;11.046;2023-01-15T15:50:20;100565.28;;;8.50;100.00
42125;BME280;27787;44.594;11.046;2023-01-15T15:53:14;100560.03;;;8.52;100.00
42125;BME280;27787;44.594;11.046;2023-01-15T15:55:59;100572.28;;;8.48;99.81
42125;BME280;27787;44.594;11.046;2023-01-15T15:58:45;100575.72;;;8.44;100.00
42125;BME280;27787;44.594;11.046;2023-01-15T16:01:30;100574.97;;;8.53;100.00
42125;BME280;27787;44.594;11.046;2023-01-15T16:04:16;100567.91;;;8.49;100.00
42125;BME280;27787;44.594;11.046;2023-01-15T16:07:11;100578.31;;;8.43;100.00
42125;BME280;27787;44.594;11.046;2023-01-15T16:09:58;100576.56;;;8.42;100.00
42125;BME280;27787;44.594;11.046;2023-01-15T16:12:51;100580.75;;;8.31;100.00
42125;BME280;27787;44.594;11.046;2023-01-15T16:15:38;100575.34;;;8.20;100.00
42125;BME280;27787;44.594;11.046;2023-01-15T16:21:19;100579.56;;;8.07;100.00
42125;BME280;27787;44.594;11.046;2023-01-15T16:24:08;100571.56;;;7.99;100.00
42125;BME280;27787;44.594;11.046;2023-01-15T16:27:06;100565.31;;;7.91;100.00
42125;BME280;27787;44.594;11.046;2023-01-15T16:29:57;100569.66;;;7.89;100.00
42125;BME280;27787;44.594;11.046;2023-01-15T16:32:42;100569.66;;;7.89;100.00
42125;BME280;27787;44.594;11.046;2023-01-15T16:35:28;100566.06;;;7.81;100.00
42125;BME280;27787;44.594;11.046;2023-01-15T16:38:14;100580.84;;;7.76;100.00
42125;BME280;27787;44.594;11.046;2023-01-15T16:41:02;100576.44;;;7.75;100.00
42125;BME280;27787;44.594;11.046;2023-01-15T16:43:53;100581.72;;;7.75;100.00
42125;BME280;27787;44.594;11.046;2023-01-15T16:46:48;100565.06;;;7.75;100.00
42125;BME280;27787;44.594;11.046;2023-01-15T16:49:35;100571.19;;;7.75;100.00